createdAt,value
2024-04-14T00:01:57.459Z,99.90
2024-04-14T00:04:24.580Z,99.90
2024-04-14T00:06:54.337Z,99.90
2024-04-14T00:09:21.399Z,99.90
2024-04-14T00:11:51.093Z,99.90
2024-04-14T00:14:18.126Z,99.90
2024-04-14T00:16:48.021Z,99.90
2024-04-14T00:19:17.783Z,99.90
2024-04-14T00:21:47.748Z,99.90
2024-04-14T00:24:15.210Z,99.90
2024-04-14T00:26:44.745Z,99.90
2024-04-14T00:29:11.659Z,99.90
2024-04-14T00:31:41.945Z,99.90
2024-04-14T00:34:11.562Z,99.90
2024-04-14T00:36:41.616Z,99.90
2024-04-14T00:39:08.585Z,99.90
2024-04-14T00:41:38.096Z,99.90
2024-04-14T00:44:05.319Z,99.90
2024-04-14T00:46:35.016Z,99.90
2024-04-14T00:49:03.500Z,99.90
2024-04-14T00:51:33.343Z,99.90
2024-04-14T00:54:01.298Z,99.90
2024-04-14T00:56:31.344Z,99.90
2024-04-14T00:58:58.363Z,99.90
2024-04-14T01:01:27.988Z,99.90
2024-04-14T01:03:55.313Z,99.90
2024-04-14T01:06:24.977Z,99.90
2024-04-14T01:08:51.968Z,99.90
2024-04-14T01:11:21.541Z,99.90
2024-04-14T01:13:48.787Z,99.90
2024-04-14T01:16:18.292Z,99.90
2024-04-14T01:18:45.311Z,99.90
2024-04-14T01:21:15.111Z,99.90
2024-04-14T01:23:42.040Z,99.90
2024-04-14T01:26:11.732Z,99.90
2024-04-14T01:28:38.689Z,99.90
2024-04-14T01:31:08.209Z,99.90
2024-04-14T01:33:35.128Z,99.90
2024-04-14T01:36:04.640Z,99.90
2024-04-14T01:38:31.940Z,99.90
2024-04-14T01:41:01.913Z,99.90
2024-04-14T01:43:29.366Z,99.90
2024-04-14T01:45:59.216Z,99.90
2024-04-14T01:48:26.404Z,99.90
2024-04-14T01:50:55.977Z,99.90
2024-04-14T01:53:22.939Z,99.90
2024-04-14T01:55:52.488Z,99.90
2024-04-14T01:58:19.428Z,99.90
2024-04-14T02:00:49.051Z,99.90
2024-04-14T02:03:16.046Z,99.90
2024-04-14T02:05:45.598Z,99.90
2024-04-14T02:08:12.492Z,99.90
2024-04-14T02:10:45.161Z,99.90
2024-04-14T02:13:12.122Z,99.90
2024-04-14T02:15:41.709Z,99.90
2024-04-14T02:18:08.878Z,99.90
2024-04-14T02:20:39.172Z,99.90
2024-04-14T02:23:06.101Z,99.90
2024-04-14T02:25:36.268Z,99.90
2024-04-14T02:28:04.309Z,99.90
2024-04-14T02:30:34.051Z,99.90
2024-04-14T02:33:01.949Z,99.90
2024-04-14T02:35:31.509Z,99.90
2024-04-14T02:37:58.431Z,99.90
2024-04-14T02:40:28.238Z,99.90
2024-04-14T02:42:55.220Z,99.90
2024-04-14T02:45:24.885Z,99.90
2024-04-14T02:47:51.877Z,99.90
2024-04-14T02:50:21.416Z,99.90
2024-04-14T02:52:48.389Z,99.90
2024-04-14T02:55:17.980Z,99.90
2024-04-14T02:57:47.424Z,99.90
2024-04-14T03:00:17.074Z,99.90
2024-04-14T03:02:44.090Z,99.90
2024-04-14T03:05:13.626Z,99.90
2024-04-14T03:07:40.513Z,99.90
2024-04-14T03:10:10.405Z,99.90
2024-04-14T03:12:37.372Z,99.90
2024-04-14T03:15:07.125Z,99.90
2024-04-14T03:17:34.470Z,99.90
2024-04-14T03:20:03.977Z,99.90
2024-04-14T03:22:30.965Z,99.90
2024-04-14T03:25:00.546Z,99.90
2024-04-14T03:27:27.523Z,99.90
2024-04-14T03:29:57.025Z,99.90
2024-04-14T03:32:23.902Z,99.90
2024-04-14T03:34:56.419Z,99.90
2024-04-14T03:37:25.914Z,99.90
2024-04-14T03:39:55.597Z,99.90
2024-04-14T03:42:25.191Z,99.90
2024-04-14T03:44:54.706Z,99.90
2024-04-14T03:47:24.305Z,99.90
2024-04-14T03:49:53.815Z,99.90
2024-04-14T03:52:20.713Z,99.90
2024-04-14T03:54:50.294Z,99.90
2024-04-14T03:57:17.397Z,99.90
2024-04-14T03:59:47.290Z,99.90
2024-04-14T04:02:14.289Z,99.90
2024-04-14T04:04:43.961Z,99.90
2024-04-14T04:07:10.913Z,99.90
2024-04-14T04:09:40.492Z,99.90
2024-04-14T04:12:07.538Z,99.90
2024-04-14T04:14:37.094Z,99.90
2024-04-14T04:17:04.169Z,99.90
2024-04-14T04:19:33.960Z,99.90
2024-04-14T04:22:00.987Z,99.90
2024-04-14T04:24:31.007Z,99.90
2024-04-14T04:26:58.028Z,99.90
2024-04-14T04:29:29.113Z,99.90
2024-04-14T04:31:56.401Z,99.90
2024-04-14T04:34:26.680Z,99.90
2024-04-14T04:36:53.761Z,99.90
2024-04-14T04:39:23.515Z,99.90
2024-04-14T04:41:50.470Z,99.90
2024-04-14T04:44:20.035Z,99.90
2024-04-14T04:46:46.963Z,99.90
2024-04-14T04:49:16.576Z,99.90
2024-04-14T04:51:43.535Z,99.90
2024-04-14T04:54:13.268Z,99.90
2024-04-14T04:56:40.274Z,99.90
2024-04-14T04:59:10.999Z,99.90
2024-04-14T05:01:38.164Z,99.90
2024-04-14T05:04:09.776Z,99.90
2024-04-14T05:06:36.819Z,99.90
2024-04-14T05:09:06.912Z,99.90
2024-04-14T05:11:33.824Z,99.90
2024-04-14T05:14:03.423Z,99.90
2024-04-14T05:16:30.364Z,99.90
2024-04-14T05:18:59.928Z,99.90
2024-04-14T05:21:26.956Z,99.90
2024-04-14T05:23:56.533Z,99.90
2024-04-14T05:26:23.448Z,99.90
2024-04-14T05:28:52.960Z,99.90
2024-04-14T05:31:19.972Z,99.90
2024-04-14T05:33:55.608Z,99.90
2024-04-14T05:36:22.602Z,99.90
2024-04-14T05:38:52.263Z,99.90
2024-04-14T05:41:19.387Z,99.90
2024-04-14T05:43:49.085Z,99.90
2024-04-14T05:46:16.376Z,99.90
2024-04-14T05:48:45.970Z,99.90
2024-04-14T05:51:12.951Z,99.90
2024-04-14T05:53:42.627Z,99.90
2024-04-14T05:56:09.584Z,99.90
2024-04-14T05:58:39.634Z,99.90
2024-04-14T06:01:10.051Z,99.90
2024-04-14T06:03:39.913Z,99.90
2024-04-14T06:06:06.934Z,99.90
2024-04-14T06:08:36.505Z,99.90
2024-04-14T06:11:03.551Z,99.90
2024-04-14T06:13:33.912Z,99.90
2024-04-14T06:16:00.886Z,99.90
2024-04-14T06:18:30.487Z,99.90
2024-04-14T06:20:57.469Z,99.90
2024-04-14T06:23:27.328Z,99.90
2024-04-14T06:25:54.254Z,99.90
2024-04-14T06:28:23.997Z,99.90
2024-04-14T06:30:51.086Z,99.90
2024-04-14T06:33:21.759Z,99.90
2024-04-14T06:35:48.832Z,99.90
2024-04-14T06:38:18.687Z,99.90
2024-04-14T06:40:48.877Z,99.90
2024-04-14T06:43:18.555Z,99.90
2024-04-14T06:45:50.330Z,99.90
2024-04-14T06:48:19.982Z,99.90
2024-04-14T06:50:46.958Z,99.90
2024-04-14T06:53:19.310Z,99.90
2024-04-14T06:55:47.584Z,99.90
2024-04-14T06:58:17.606Z,99.90
2024-04-14T07:00:44.675Z,99.90
2024-04-14T07:03:15.580Z,99.90
2024-04-14T07:05:42.570Z,99.90
2024-04-14T07:08:12.160Z,99.90
2024-04-14T07:10:40.347Z,99.90
2024-04-14T07:13:11.036Z,99.90
2024-04-14T07:15:37.964Z,99.90
2024-04-14T07:18:07.940Z,99.90
2024-04-14T07:20:39.433Z,99.90
2024-04-14T07:23:09.115Z,99.90
2024-04-14T07:25:36.060Z,99.90
2024-04-14T07:28:05.655Z,99.90
2024-04-14T07:30:32.628Z,99.90
2024-04-14T07:33:02.323Z,99.90
2024-04-14T07:35:29.383Z,99.90
2024-04-14T07:37:58.888Z,99.90
2024-04-14T07:40:25.991Z,99.90
2024-04-14T07:42:58.214Z,99.90
2024-04-14T07:45:25.167Z,99.90
2024-04-14T07:47:54.889Z,99.90
2024-04-14T07:50:21.833Z,99.90
2024-04-14T07:52:51.385Z,99.90
2024-04-14T07:55:18.487Z,99.90
2024-04-14T07:57:49.145Z,99.90
2024-04-14T08:00:16.238Z,99.90
2024-04-14T08:02:46.480Z,99.90
2024-04-14T08:05:13.543Z,99.90
2024-04-14T08:07:43.268Z,99.90
2024-04-14T08:10:10.766Z,99.90
2024-04-14T08:12:40.736Z,99.90
2024-04-14T08:15:07.867Z,99.90
2024-04-14T08:17:37.484Z,99.90
2024-04-14T08:20:04.666Z,99.90
2024-04-14T08:22:34.327Z,99.90
2024-04-14T08:25:01.496Z,99.90
2024-04-14T08:27:32.119Z,99.90
2024-04-14T08:29:59.123Z,99.90
2024-04-14T08:32:29.380Z,99.60
2024-04-14T08:34:57.123Z,99.90
2024-04-14T08:37:26.679Z,99.50
2024-04-14T08:39:53.815Z,99.50
2024-04-14T08:42:24.111Z,99.10
2024-04-14T08:44:52.606Z,99.50
2024-04-14T08:47:23.466Z,98.90
2024-04-14T08:49:51.720Z,99.60
2024-04-14T08:52:24.389Z,99.90
2024-04-14T08:54:51.434Z,99.90
2024-04-14T08:57:22.062Z,99.90
2024-04-14T08:59:51.078Z,99.90
2024-04-14T09:02:22.068Z,99.70
2024-04-14T09:04:51.971Z,99.70
2024-04-14T09:07:21.529Z,98.60
2024-04-14T09:09:50.646Z,99.20
2024-04-14T09:12:21.271Z,99.50
2024-04-14T09:14:49.375Z,99.90
2024-04-14T09:17:19.351Z,99.90
2024-04-14T09:19:46.488Z,99.90
2024-04-14T09:22:19.087Z,99.90
2024-04-14T09:24:46.195Z,99.90
2024-04-14T09:27:15.826Z,99.90
2024-04-14T09:29:42.904Z,99.50
2024-04-14T09:32:12.607Z,97.80
2024-04-14T09:34:39.904Z,97.40
2024-04-14T09:37:13.786Z,98.10
2024-04-14T09:39:42.687Z,98.40
2024-04-14T09:42:12.243Z,98.90
2024-04-14T09:44:41.106Z,99.30
2024-04-14T09:47:11.448Z,98.60
2024-04-14T09:49:40.385Z,98.90
2024-04-14T09:52:11.733Z,98.50
2024-04-14T09:54:41.263Z,97.80
2024-04-14T09:57:10.842Z,97.60
2024-04-14T09:59:37.832Z,96.00
2024-04-14T10:02:13.173Z,96.30
2024-04-14T10:04:44.505Z,95.30
2024-04-14T10:07:16.120Z,95.40
2024-04-14T10:09:49.077Z,95.00
2024-04-14T10:12:27.985Z,95.20
2024-04-14T10:14:55.747Z,93.50
2024-04-14T10:17:25.443Z,94.00
2024-04-14T10:19:56.575Z,92.90
2024-04-14T10:22:33.697Z,91.90
2024-04-14T10:25:01.263Z,91.80
2024-04-14T10:27:34.656Z,90.90
2024-04-14T10:30:04.026Z,91.20
2024-04-14T10:32:34.236Z,91.00
2024-04-14T10:35:01.229Z,91.10
2024-04-14T10:37:31.923Z,91.80
2024-04-14T10:39:59.038Z,91.00
2024-04-14T10:42:28.612Z,90.50
2024-04-14T10:44:55.562Z,90.30
2024-04-14T10:47:25.556Z,88.60
2024-04-14T10:49:52.742Z,88.60
2024-04-14T10:52:22.543Z,88.30
2024-04-14T10:54:49.472Z,87.20
2024-04-14T10:57:19.041Z,87.00
2024-04-14T10:59:46.245Z,85.70
2024-04-14T11:02:15.847Z,85.80
2024-04-14T11:04:43.736Z,85.30
2024-04-14T11:07:13.599Z,84.80
2024-04-14T11:09:41.129Z,84.20
2024-04-14T11:12:11.256Z,86.40
2024-04-14T11:14:38.296Z,84.70
2024-04-14T11:17:17.984Z,84.40
2024-04-14T11:19:48.091Z,82.90
2024-04-14T11:22:22.363Z,81.30
2024-04-14T11:24:52.787Z,82.30
2024-04-14T11:27:23.585Z,82.60
2024-04-14T11:29:51.344Z,81.70
2024-04-14T11:32:37.015Z,83.60
2024-04-14T11:35:06.934Z,82.70
2024-04-14T11:37:38.526Z,82.30
2024-04-14T11:40:11.398Z,82.30
2024-04-14T11:42:41.750Z,81.90
2024-04-14T11:45:12.156Z,82.30
2024-04-14T11:47:41.762Z,82.70
2024-04-14T11:50:10.138Z,83.80
2024-04-14T11:52:39.844Z,82.70
2024-04-14T11:55:08.740Z,83.30
2024-04-14T11:57:39.411Z,82.10
2024-04-14T12:00:07.193Z,82.60
2024-04-14T12:02:36.781Z,84.30
2024-04-14T12:05:03.966Z,79.30
2024-04-14T12:07:33.512Z,80.40
2024-04-14T12:10:00.569Z,80.10
2024-04-14T12:12:30.542Z,78.90
2024-04-14T12:14:57.454Z,77.70
2024-04-14T12:17:28.104Z,79.20
2024-04-14T12:19:55.026Z,79.20
2024-04-14T12:22:25.629Z,77.70
2024-04-14T12:24:53.700Z,76.40
2024-04-14T12:27:23.431Z,80.60
2024-04-14T12:29:50.416Z,81.30
2024-04-14T12:32:20.229Z,81.10
2024-04-14T12:34:47.208Z,82.40
2024-04-14T12:37:16.718Z,78.40
2024-04-14T12:39:43.714Z,78.90
2024-04-14T12:42:13.350Z,75.80
2024-04-14T12:44:40.829Z,74.20
2024-04-14T12:47:10.375Z,75.80
2024-04-14T12:49:37.442Z,73.90
2024-04-14T12:52:07.406Z,75.00
2024-04-14T12:54:34.394Z,75.10
2024-04-14T12:57:04.014Z,77.50
2024-04-14T12:59:31.001Z,77.60
2024-04-14T13:02:00.533Z,75.30
2024-04-14T13:04:27.578Z,73.50
2024-04-14T13:06:57.176Z,73.20
2024-04-14T13:09:24.148Z,75.60
2024-04-14T13:11:53.980Z,72.80
2024-04-14T13:14:20.972Z,73.40
2024-04-14T13:16:50.546Z,71.50
2024-04-14T13:19:17.570Z,73.20
2024-04-14T13:21:47.197Z,74.00
2024-04-14T13:24:14.119Z,76.70
2024-04-14T13:26:52.586Z,74.30
2024-04-14T13:29:19.556Z,74.00
2024-04-14T13:31:49.642Z,73.10
2024-04-14T13:34:16.638Z,74.60
2024-04-14T13:36:46.279Z,75.10
2024-04-14T13:39:13.266Z,75.70
2024-04-14T13:41:42.933Z,76.80
2024-04-14T13:44:09.970Z,76.80
2024-04-14T13:46:40.413Z,76.50
2024-04-14T13:49:07.458Z,76.60
2024-04-14T13:51:37.085Z,76.10
2024-04-14T13:54:05.800Z,77.70
2024-04-14T13:56:35.313Z,76.00
2024-04-14T13:59:02.240Z,77.20
2024-04-14T14:01:31.931Z,77.30
2024-04-14T14:03:59.046Z,77.50
2024-04-14T14:06:29.052Z,78.10
2024-04-14T14:08:56.189Z,80.60
2024-04-14T14:11:25.967Z,79.20
2024-04-14T14:13:54.456Z,80.90
2024-04-14T14:16:24.154Z,80.90
2024-04-14T14:18:51.312Z,81.80
2024-04-14T14:21:20.915Z,80.70
2024-04-14T14:23:47.890Z,80.00
2024-04-14T14:26:18.074Z,80.30
2024-04-14T14:28:44.994Z,79.70
2024-04-14T14:31:15.326Z,79.80
2024-04-14T14:34:01.129Z,80.30
2024-04-14T14:36:31.050Z,81.10
2024-04-14T14:39:01.307Z,81.40
2024-04-14T14:41:31.214Z,82.10
2024-04-14T14:44:01.160Z,80.90
2024-04-14T14:46:30.713Z,81.10
2024-04-14T14:49:00.108Z,80.40
2024-04-14T14:51:32.540Z,80.30
2024-04-14T14:53:59.479Z,81.20
2024-04-14T14:56:29.009Z,80.60
2024-04-14T14:58:55.944Z,80.30
2024-04-14T15:01:25.586Z,80.40
2024-04-14T15:03:57.090Z,81.60
2024-04-14T15:06:29.625Z,82.20
2024-04-14T15:08:57.282Z,82.00
2024-04-14T15:11:26.870Z,81.80
2024-04-14T15:13:55.909Z,82.10
2024-04-14T15:16:28.040Z,82.60
2024-04-14T15:18:55.076Z,81.60
2024-04-14T15:21:24.858Z,82.70
2024-04-14T15:23:51.862Z,83.00
2024-04-14T15:26:22.544Z,82.00
2024-04-14T15:28:49.479Z,82.70
2024-04-14T15:31:19.054Z,83.50
2024-04-14T15:33:46.209Z,82.80
2024-04-14T15:36:15.959Z,83.20
2024-04-14T15:38:43.238Z,83.00
2024-04-14T15:41:13.528Z,82.90
2024-04-14T15:43:41.919Z,82.60
2024-04-14T15:46:15.696Z,82.50
2024-04-14T15:48:42.739Z,83.50
2024-04-14T15:51:18.524Z,82.40
2024-04-14T15:53:47.973Z,81.90
2024-04-14T15:56:17.540Z,81.60
2024-04-14T15:58:44.470Z,82.20
2024-04-14T16:01:14.181Z,83.40
2024-04-14T16:03:41.676Z,82.80
2024-04-14T16:06:11.347Z,82.30
2024-04-14T16:08:38.311Z,82.40
2024-04-14T16:11:09.494Z,82.30
2024-04-14T16:13:36.727Z,82.20
2024-04-14T16:16:15.367Z,83.40
2024-04-14T16:18:46.737Z,83.30
2024-04-14T16:21:16.785Z,83.30
2024-04-14T16:23:48.829Z,83.80
2024-04-14T16:26:18.782Z,83.30
2024-04-14T16:28:45.876Z,82.90
2024-04-14T16:31:16.749Z,83.40
2024-04-14T16:33:44.526Z,84.20
2024-04-14T16:36:14.753Z,84.90
2024-04-14T16:38:41.926Z,85.20
2024-04-14T16:41:11.631Z,84.80
2024-04-14T16:43:38.894Z,84.80
2024-04-14T16:46:08.932Z,85.20
2024-04-14T16:48:36.230Z,86.30
2024-04-14T16:51:06.129Z,86.20
2024-04-14T16:53:33.196Z,86.90
2024-04-14T16:56:02.725Z,87.30
2024-04-14T16:58:30.765Z,87.50
2024-04-14T17:01:00.486Z,87.70
2024-04-14T17:03:27.500Z,88.60
2024-04-14T17:05:58.126Z,89.10
2024-04-14T17:08:25.136Z,89.50
2024-04-14T17:10:54.729Z,89.90
2024-04-14T17:13:21.976Z,90.40
2024-04-14T17:15:51.966Z,90.90
2024-04-14T17:18:19.290Z,90.20
2024-04-14T17:20:50.760Z,90.20
2024-04-14T17:23:17.689Z,90.50
2024-04-14T17:25:47.280Z,90.50
2024-04-14T17:28:14.284Z,90.90
2024-04-14T17:30:43.939Z,90.70
2024-04-14T17:33:10.985Z,90.80
2024-04-14T17:35:40.592Z,90.60
2024-04-14T17:38:07.504Z,90.80
2024-04-14T17:40:37.059Z,91.10
2024-04-14T17:43:04.251Z,91.50
2024-04-14T17:45:34.006Z,91.70
2024-04-14T17:48:01.148Z,92.00
2024-04-14T17:50:32.510Z,92.10
2024-04-14T17:52:59.499Z,92.00
2024-04-14T17:55:29.043Z,92.30
2024-04-14T17:57:56.011Z,92.30
2024-04-14T18:00:25.586Z,92.70
2024-04-14T18:02:52.600Z,92.80
2024-04-14T18:05:22.145Z,93.40
2024-04-14T18:07:49.077Z,93.20
2024-04-14T18:10:23.478Z,93.10
2024-04-14T18:12:51.025Z,93.60
2024-04-14T18:15:21.202Z,94.60
2024-04-14T18:17:48.133Z,95.30
2024-04-14T18:20:17.798Z,95.40
2024-04-14T18:22:44.770Z,95.40
2024-04-14T18:25:14.454Z,95.70
2024-04-14T18:27:41.580Z,95.80
2024-04-14T18:30:12.571Z,96.70
2024-04-14T18:32:40.821Z,96.80
2024-04-14T18:35:10.712Z,97.00
2024-04-14T18:37:37.836Z,97.20
2024-04-14T18:40:08.309Z,97.90
2024-04-14T18:42:35.292Z,98.90
2024-04-14T18:45:06.304Z,98.80
2024-04-14T18:47:33.366Z,98.90
2024-04-14T18:50:02.949Z,98.70
2024-04-14T18:52:31.308Z,98.60
2024-04-14T18:55:00.990Z,98.30
2024-04-14T18:57:29.320Z,98.70
2024-04-14T19:00:00.034Z,98.50
2024-04-14T19:02:27.022Z,98.20
2024-04-14T19:04:56.539Z,98.50
2024-04-14T19:07:23.487Z,98.70
2024-04-14T19:09:53.077Z,98.70
2024-04-14T19:12:21.266Z,99.00
2024-04-14T19:14:50.789Z,99.20
2024-04-14T19:17:20.263Z,99.40
2024-04-14T19:19:49.873Z,99.50
2024-04-14T19:22:16.871Z,99.90
2024-04-14T19:24:47.942Z,99.90
2024-04-14T19:27:14.959Z,99.90
2024-04-14T19:29:44.780Z,99.90
2024-04-14T19:32:11.678Z,99.90
2024-04-14T19:34:41.347Z,99.90
2024-04-14T19:37:08.363Z,99.90
2024-04-14T19:39:39.460Z,99.80
2024-04-14T19:42:06.767Z,99.70
2024-04-14T19:44:36.339Z,99.90
2024-04-14T19:47:04.385Z,99.90
2024-04-14T19:49:33.988Z,99.90
2024-04-14T19:52:01.054Z,99.90
2024-04-14T19:54:30.680Z,99.90
2024-04-14T19:56:57.574Z,99.90
2024-04-14T19:59:27.051Z,99.90
2024-04-14T20:01:54.179Z,99.90
2024-04-14T20:04:23.993Z,99.90
2024-04-14T20:06:52.049Z,99.90
2024-04-14T20:09:21.813Z,99.90
2024-04-14T20:11:48.722Z,99.90
2024-04-14T20:14:20.183Z,99.90
2024-04-14T20:16:47.430Z,99.90
2024-04-14T20:19:17.298Z,99.90
2024-04-14T20:21:44.364Z,99.90
2024-04-14T20:24:13.933Z,99.90
2024-04-14T20:26:40.851Z,99.90
2024-04-14T20:29:10.530Z,99.90
2024-04-14T20:31:37.594Z,99.90
2024-04-14T20:34:09.923Z,99.90
2024-04-14T20:36:37.096Z,99.90
2024-04-14T20:39:07.732Z,99.90
2024-04-14T20:41:34.643Z,99.90
2024-04-14T20:44:04.331Z,99.90
2024-04-14T20:46:33.561Z,99.90
2024-04-14T20:49:03.310Z,99.90
2024-04-14T20:51:30.251Z,99.90
2024-04-14T20:53:59.846Z,99.90
2024-04-14T20:56:28.124Z,99.90
2024-04-14T20:58:57.649Z,99.90
2024-04-14T21:01:24.804Z,99.90
2024-04-14T21:03:56.874Z,99.90
2024-04-14T21:06:23.866Z,99.90
2024-04-14T21:08:53.770Z,99.90
2024-04-14T21:11:20.794Z,99.90
2024-04-14T21:13:50.452Z,99.90
2024-04-14T21:16:17.457Z,99.90
2024-04-14T21:18:48.285Z,99.90
2024-04-14T21:21:15.289Z,99.90
2024-04-14T21:23:45.088Z,99.90
2024-04-14T21:26:12.320Z,99.90
2024-04-14T21:28:42.153Z,99.90
2024-04-14T21:31:09.155Z,99.90
2024-04-14T21:33:39.007Z,99.90
2024-04-14T21:36:12.032Z,99.90
2024-04-14T21:38:41.569Z,99.90
2024-04-14T21:41:09.950Z,99.90
2024-04-14T21:43:39.778Z,99.90
2024-04-14T21:46:06.707Z,99.90
2024-04-14T21:48:36.316Z,99.90
2024-04-14T21:51:07.521Z,99.90
2024-04-14T21:53:40.703Z,99.90
2024-04-14T21:56:07.786Z,99.90
2024-04-14T21:58:38.666Z,99.90
2024-04-14T22:01:15.936Z,99.90
2024-04-14T22:03:55.231Z,99.90
2024-04-14T22:06:28.355Z,99.90
2024-04-14T22:08:57.974Z,99.90
2024-04-14T22:11:24.950Z,99.90
2024-04-14T22:13:54.878Z,99.90
2024-04-14T22:16:22.145Z,99.90
2024-04-14T22:18:51.808Z,99.90
2024-04-14T22:21:18.785Z,99.90
2024-04-14T22:23:48.286Z,99.90
2024-04-14T22:26:15.227Z,99.90
2024-04-14T22:28:44.829Z,99.90
2024-04-14T22:31:11.790Z,99.90
2024-04-14T22:33:41.412Z,99.90
2024-04-14T22:36:08.584Z,99.90
2024-04-14T22:38:38.589Z,99.90
2024-04-14T22:41:06.660Z,99.90
2024-04-14T22:43:36.274Z,99.90
2024-04-14T22:46:03.405Z,99.90
2024-04-14T22:48:33.040Z,99.90
2024-04-14T22:50:59.923Z,99.90
2024-04-14T22:53:29.474Z,99.90
2024-04-14T22:55:56.458Z,99.90
2024-04-14T22:58:26.044Z,99.90
2024-04-14T23:00:53.154Z,99.90
2024-04-14T23:03:22.820Z,99.90
2024-04-14T23:05:49.827Z,99.90
2024-04-14T23:08:19.372Z,99.90
2024-04-14T23:10:46.323Z,99.90
2024-04-14T23:13:16.015Z,99.90
2024-04-14T23:15:43.092Z,99.90
2024-04-14T23:18:12.717Z,99.90
2024-04-14T23:20:39.699Z,99.90
2024-04-14T23:23:09.281Z,99.90
2024-04-14T23:25:36.219Z,99.90
2024-04-14T23:28:06.024Z,99.90
2024-04-14T23:30:32.951Z,99.90
2024-04-14T23:33:02.558Z,99.90
2024-04-14T23:35:29.495Z,99.90
2024-04-14T23:37:59.113Z,99.90
2024-04-14T23:40:26.010Z,99.90
2024-04-14T23:42:55.596Z,99.90
2024-04-14T23:45:22.563Z,99.90
2024-04-14T23:47:52.359Z,99.90
2024-04-14T23:50:19.517Z,99.90
2024-04-14T23:52:49.972Z,99.90
2024-04-14T23:55:17.040Z,99.90
2024-04-14T23:57:48.301Z,99.90
